createdAt,value
2019-05-23T00:00:07.560Z,99.90
2019-05-23T00:02:45.013Z,99.90
2019-05-23T00:05:33.271Z,99.90
2019-05-23T00:08:06.440Z,99.90
2019-05-23T00:10:42.780Z,99.90
2019-05-23T00:13:15.145Z,99.90
2019-05-23T00:15:47.123Z,99.90
2019-05-23T00:18:21.257Z,99.90
2019-05-23T00:20:51.713Z,99.90
2019-05-23T00:23:22.210Z,99.90
2019-05-23T00:25:52.639Z,99.90
2019-05-23T00:28:22.449Z,99.90
2019-05-23T00:30:55.710Z,99.90
2019-05-23T00:33:33.025Z,99.90
2019-05-23T00:36:03.530Z,99.90
2019-05-23T00:38:34.607Z,99.90
2019-05-23T00:41:04.544Z,99.90
2019-05-23T00:43:34.801Z,99.90
2019-05-23T00:46:04.632Z,99.90
2019-05-23T00:48:34.695Z,99.90
2019-05-23T00:51:05.993Z,99.90
2019-05-23T00:53:37.141Z,99.90
2019-05-23T00:56:08.913Z,99.90
2019-05-23T00:58:39.247Z,99.90
2019-05-23T01:01:08.984Z,99.90
2019-05-23T01:03:39.281Z,99.90
2019-05-23T01:06:09.205Z,99.90
2019-05-23T01:08:39.282Z,99.90
2019-05-23T01:11:09.383Z,99.90
2019-05-23T01:13:38.924Z,99.90
2019-05-23T01:16:08.775Z,99.90
2019-05-23T01:18:39.087Z,99.90
2019-05-23T01:21:30.630Z,99.90
2019-05-23T01:24:19.443Z,99.90
2019-05-23T01:26:50.624Z,99.90
2019-05-23T01:29:22.262Z,99.90
2019-05-23T01:31:54.076Z,99.90
2019-05-23T01:34:26.875Z,99.90
2019-05-23T01:36:56.982Z,99.90
2019-05-23T01:39:26.263Z,99.90
2019-05-23T01:41:56.564Z,99.90
2019-05-23T01:44:26.487Z,99.90
2019-05-23T01:46:59.162Z,99.90
2019-05-23T01:49:28.674Z,99.90
2019-05-23T01:51:57.959Z,99.90
2019-05-23T01:54:27.296Z,99.90
2019-05-23T01:56:56.809Z,99.90
2019-05-23T01:59:26.046Z,99.90
2019-05-23T02:01:55.611Z,99.90
2019-05-23T02:04:24.908Z,99.90
2019-05-23T02:06:54.261Z,99.90
2019-05-23T02:09:23.788Z,99.90
2019-05-23T02:11:54.182Z,99.90
2019-05-23T02:14:25.144Z,99.90
2019-05-23T02:16:56.090Z,99.90
2019-05-23T02:19:26.049Z,99.90
2019-05-23T02:21:56.035Z,99.90
2019-05-23T02:24:27.123Z,99.90
2019-05-23T02:26:56.729Z,99.90
2019-05-23T02:29:26.570Z,99.90
2019-05-23T02:31:56.310Z,99.90
2019-05-23T02:34:25.538Z,99.90
2019-05-23T02:36:57.881Z,99.90
2019-05-23T02:40:04.854Z,99.90
2019-05-23T02:42:42.681Z,99.90
2019-05-23T02:45:18.665Z,99.90
2019-05-23T02:47:50.911Z,99.90
2019-05-23T02:50:28.593Z,99.90
2019-05-23T02:52:59.745Z,99.90
2019-05-23T02:55:34.502Z,99.90
2019-05-23T02:58:19.431Z,99.90
2019-05-23T03:01:01.592Z,99.90
2019-05-23T03:03:32.848Z,99.90
2019-05-23T03:06:04.512Z,99.90
2019-05-23T03:08:35.462Z,99.90
2019-05-23T03:11:19.735Z,99.90
2019-05-23T03:13:52.025Z,99.90
2019-05-23T03:16:24.258Z,99.90
2019-05-23T03:19:01.489Z,99.90
2019-05-23T03:21:30.908Z,99.90
2019-05-23T03:24:01.563Z,99.90
2019-05-23T03:26:53.892Z,99.90
2019-05-23T03:29:23.735Z,99.90
2019-05-23T03:32:11.210Z,99.90
2019-05-23T03:34:43.235Z,99.90
2019-05-23T03:37:14.461Z,99.90
2019-05-23T03:39:44.252Z,99.90
2019-05-23T03:42:13.673Z,99.90
2019-05-23T03:44:44.997Z,99.90
2019-05-23T03:47:16.125Z,99.90
2019-05-23T03:49:45.682Z,99.90
2019-05-23T03:52:16.427Z,99.90
2019-05-23T03:54:49.156Z,99.90
2019-05-23T03:57:25.287Z,99.90
2019-05-23T03:59:52.408Z,99.90
2019-05-23T04:02:26.044Z,99.90
2019-05-23T04:04:57.185Z,99.90
2019-05-23T04:07:26.426Z,99.90
2019-05-23T04:09:55.753Z,99.90
2019-05-23T04:12:25.186Z,99.90
2019-05-23T04:14:54.406Z,99.90
2019-05-23T04:17:23.749Z,99.90
2019-05-23T04:19:53.203Z,99.90
2019-05-23T04:22:22.996Z,99.90
2019-05-23T04:24:52.310Z,99.90
2019-05-23T04:27:21.613Z,99.90
2019-05-23T04:29:51.230Z,99.90
2019-05-23T04:32:22.157Z,99.90
2019-05-23T04:34:51.556Z,99.90
2019-05-23T04:37:21.053Z,99.90
2019-05-23T04:39:50.388Z,99.90
2019-05-23T04:42:19.678Z,99.90
2019-05-23T04:44:49.150Z,99.90
2019-05-23T04:47:18.910Z,99.90
2019-05-23T04:49:48.483Z,99.90
2019-05-23T04:52:18.430Z,99.90
2019-05-23T04:54:48.361Z,99.90
2019-05-23T04:57:17.919Z,99.90
2019-05-23T04:59:48.212Z,99.90
2019-05-23T05:02:26.277Z,99.90
2019-05-23T05:04:49.597Z,99.90
2019-05-23T05:07:18.968Z,99.90
2019-05-23T05:09:48.408Z,99.90
2019-05-23T05:12:18.436Z,99.90
2019-05-23T05:14:48.485Z,99.90
2019-05-23T05:17:18.269Z,99.90
2019-05-23T05:19:47.560Z,99.90
2019-05-23T05:22:18.455Z,99.90
2019-05-23T05:24:47.755Z,99.90
2019-05-23T05:27:18.706Z,99.90
2019-05-23T05:29:48.068Z,99.90
2019-05-23T05:32:18.590Z,99.90
2019-05-23T05:34:47.959Z,99.90
2019-05-23T05:37:17.257Z,99.90
2019-05-23T05:39:47.315Z,99.90
2019-05-23T05:42:17.165Z,99.90
2019-05-23T05:44:46.606Z,99.90
2019-05-23T05:47:16.235Z,99.90
2019-05-23T05:49:45.453Z,99.90
2019-05-23T05:52:15.253Z,99.90
2019-05-23T05:54:44.638Z,99.90
2019-05-23T05:57:14.128Z,99.90
2019-05-23T05:59:43.491Z,99.90
2019-05-23T06:02:16.239Z,99.90
2019-05-23T06:04:45.598Z,99.90
2019-05-23T06:07:22.637Z,99.90
2019-05-23T06:09:52.895Z,99.90
2019-05-23T06:12:22.588Z,99.90
2019-05-23T06:14:51.912Z,99.90
2019-05-23T06:17:21.364Z,99.90
2019-05-23T06:19:50.680Z,99.90
2019-05-23T06:22:20.664Z,99.90
2019-05-23T06:24:54.672Z,99.90
2019-05-23T06:27:22.414Z,99.90
2019-05-23T06:29:51.728Z,99.90
2019-05-23T06:32:23.144Z,99.90
2019-05-23T06:34:56.478Z,99.90
2019-05-23T06:37:26.495Z,99.90
2019-05-23T06:39:56.596Z,99.90
2019-05-23T06:42:25.816Z,99.90
2019-05-23T06:44:56.253Z,99.90
2019-05-23T06:47:26.028Z,99.90
2019-05-23T06:49:55.274Z,99.90
2019-05-23T06:52:24.494Z,99.90
2019-05-23T06:54:53.788Z,99.90
2019-05-23T06:57:23.287Z,99.90
2019-05-23T06:59:52.839Z,99.90
2019-05-23T07:02:23.310Z,99.90
2019-05-23T07:04:52.960Z,99.90
2019-05-23T07:07:22.381Z,99.90
2019-05-23T07:09:51.699Z,99.90
2019-05-23T07:12:21.198Z,99.90
2019-05-23T07:14:50.708Z,99.90
2019-05-23T07:17:21.098Z,99.90
2019-05-23T07:19:50.404Z,99.90
2019-05-23T07:22:19.914Z,99.90
2019-05-23T07:24:58.352Z,99.90
2019-05-23T07:27:21.180Z,99.90
2019-05-23T07:29:51.167Z,99.90
2019-05-23T07:32:20.624Z,99.90
2019-05-23T07:34:50.060Z,99.90
2019-05-23T07:37:19.389Z,99.90
2019-05-23T07:39:48.927Z,99.90
2019-05-23T07:42:18.326Z,99.90
2019-05-23T07:44:49.435Z,99.90
2019-05-23T07:47:18.641Z,99.90
2019-05-23T07:49:48.323Z,99.90
2019-05-23T07:52:18.017Z,99.90
2019-05-23T07:54:53.064Z,99.90
2019-05-23T07:57:23.198Z,99.90
2019-05-23T07:59:52.713Z,99.90
2019-05-23T08:02:28.528Z,99.90
2019-05-23T08:04:57.989Z,99.90
2019-05-23T08:07:31.910Z,99.90
2019-05-23T08:09:59.164Z,99.90
2019-05-23T08:12:28.447Z,99.90
2019-05-23T08:14:57.783Z,99.90
2019-05-23T08:17:27.542Z,99.90
2019-05-23T08:19:56.839Z,99.90
2019-05-23T08:22:26.576Z,99.90
2019-05-23T08:24:55.994Z,99.90
2019-05-23T08:27:25.566Z,99.90
2019-05-23T08:29:55.648Z,99.90
2019-05-23T08:32:25.163Z,99.90
2019-05-23T08:34:54.557Z,99.90
2019-05-23T08:37:23.979Z,99.90
2019-05-23T08:39:53.148Z,99.90
2019-05-23T08:42:22.657Z,99.90
2019-05-23T08:44:52.097Z,99.90
2019-05-23T08:47:21.721Z,99.90
2019-05-23T08:49:51.231Z,99.90
2019-05-23T08:52:20.586Z,99.90
2019-05-23T08:54:51.595Z,99.90
2019-05-23T08:57:22.222Z,99.90
2019-05-23T08:59:51.518Z,99.90
2019-05-23T09:02:23.683Z,95.70
2019-05-23T09:05:04.236Z,96.20
2019-05-23T09:07:24.284Z,90.80
2019-05-23T09:09:54.639Z,91.20
2019-05-23T09:12:25.250Z,92.20
2019-05-23T09:14:54.632Z,90.40
2019-05-23T09:17:23.899Z,90.90
2019-05-23T09:19:53.332Z,92.70
2019-05-23T09:22:22.682Z,91.00
2019-05-23T09:24:52.129Z,89.00
2019-05-23T09:27:21.338Z,90.00
2019-05-23T09:29:50.833Z,91.40
2019-05-23T09:32:20.160Z,86.10
2019-05-23T09:34:49.454Z,84.20
2019-05-23T09:37:19.193Z,86.80
2019-05-23T09:39:49.746Z,78.70
2019-05-23T09:42:19.494Z,78.60
2019-05-23T09:44:48.909Z,80.70
2019-05-23T09:47:18.502Z,83.90
2019-05-23T09:49:53.558Z,86.50
2019-05-23T09:52:19.818Z,91.70
2019-05-23T09:54:49.167Z,81.60
2019-05-23T09:57:18.877Z,80.70
2019-05-23T09:59:48.080Z,77.10
2019-05-23T10:02:20.851Z,86.80
2019-05-23T10:04:49.598Z,80.90
2019-05-23T10:07:19.051Z,75.30
2019-05-23T10:09:48.491Z,78.50
2019-05-23T10:12:17.895Z,75.60
2019-05-23T10:14:47.263Z,84.20
2019-05-23T10:17:19.262Z,75.60
2019-05-23T10:19:48.556Z,78.50
2019-05-23T10:22:17.903Z,79.30
2019-05-23T10:24:47.127Z,80.90
2019-05-23T10:27:16.451Z,85.20
2019-05-23T10:29:45.770Z,82.40
2019-05-23T10:32:15.260Z,80.50
2019-05-23T10:34:44.597Z,89.30
2019-05-23T10:37:16.295Z,87.20
2019-05-23T10:39:49.573Z,84.60
2019-05-23T10:42:19.439Z,87.70
2019-05-23T10:44:48.684Z,83.50
2019-05-23T10:47:18.070Z,83.00
2019-05-23T10:49:47.415Z,81.40
2019-05-23T10:52:16.807Z,85.70
2019-05-23T10:54:46.189Z,83.40
2019-05-23T10:57:15.610Z,86.50
2019-05-23T10:59:45.013Z,81.10
2019-05-23T11:02:14.704Z,85.50
2019-05-23T11:04:44.276Z,82.10
2019-05-23T11:07:13.563Z,86.80
2019-05-23T11:09:43.480Z,85.90
2019-05-23T11:12:13.373Z,89.80
2019-05-23T11:14:42.838Z,85.40
2019-05-23T11:17:12.315Z,85.90
2019-05-23T11:19:41.841Z,79.30
2019-05-23T11:22:11.172Z,79.50
2019-05-23T11:24:40.820Z,81.70
2019-05-23T11:27:10.279Z,84.60
2019-05-23T11:29:39.783Z,93.70
2019-05-23T11:32:10.304Z,94.40
2019-05-23T11:34:39.646Z,93.40
2019-05-23T11:37:09.251Z,95.40
2019-05-23T11:39:42.317Z,91.50
2019-05-23T11:42:09.697Z,87.10
2019-05-23T11:44:39.140Z,90.90
2019-05-23T11:47:09.431Z,91.50
2019-05-23T11:49:39.348Z,90.30
2019-05-23T11:52:10.245Z,90.60
2019-05-23T11:54:39.984Z,93.00
2019-05-23T11:57:09.676Z,92.20
2019-05-23T11:59:40.078Z,91.60
2019-05-23T12:02:16.363Z,91.70
2019-05-23T12:04:45.767Z,88.60
2019-05-23T12:07:31.131Z,91.70
2019-05-23T12:10:00.382Z,90.80
2019-05-23T12:12:29.819Z,87.50
2019-05-23T12:14:59.266Z,90.40
2019-05-23T12:17:31.353Z,89.20
2019-05-23T12:20:00.729Z,91.50
2019-05-23T12:22:30.138Z,82.00
2019-05-23T12:25:18.181Z,80.50
2019-05-23T12:27:31.017Z,79.80
2019-05-23T12:30:00.676Z,82.80
2019-05-23T12:32:30.055Z,79.20
2019-05-23T12:35:10.198Z,75.10
2019-05-23T12:37:30.734Z,76.00
2019-05-23T12:40:00.549Z,79.70
2019-05-23T12:42:29.922Z,83.20
2019-05-23T12:44:59.281Z,84.10
2019-05-23T12:47:36.888Z,79.60
2019-05-23T12:50:10.533Z,81.80
2019-05-23T12:52:39.962Z,80.30
2019-05-23T12:55:09.315Z,77.90
2019-05-23T12:57:38.533Z,79.20
2019-05-23T13:00:15.465Z,82.20
2019-05-23T13:02:45.477Z,79.50
2019-05-23T13:05:15.214Z,77.30
2019-05-23T13:07:44.640Z,79.90
2019-05-23T13:10:14.675Z,83.30
2019-05-23T13:12:44.284Z,83.70
2019-05-23T13:15:14.217Z,81.20
2019-05-23T13:17:43.536Z,81.20
2019-05-23T13:20:13.007Z,80.70
2019-05-23T13:22:42.242Z,83.00
2019-05-23T13:25:12.493Z,78.60
2019-05-23T13:27:42.097Z,84.40
2019-05-23T13:30:11.489Z,80.20
2019-05-23T13:32:41.314Z,86.80
2019-05-23T13:35:10.854Z,82.40
2019-05-23T13:37:53.266Z,81.80
2019-05-23T13:40:12.195Z,87.40
2019-05-23T13:42:41.653Z,81.90
2019-05-23T13:45:12.422Z,82.60
2019-05-23T13:47:42.330Z,80.10
2019-05-23T13:50:12.089Z,83.00
2019-05-23T13:52:41.733Z,80.40
2019-05-23T13:55:11.289Z,79.80
2019-05-23T13:57:40.783Z,79.30
2019-05-23T14:00:11.443Z,79.20
2019-05-23T14:02:40.713Z,80.90
2019-05-23T14:05:10.830Z,83.90
2019-05-23T14:07:40.248Z,89.80
2019-05-23T14:10:09.968Z,90.90
2019-05-23T14:12:39.507Z,83.80
2019-05-23T14:15:10.754Z,86.10
2019-05-23T14:17:41.941Z,86.20
2019-05-23T14:20:11.545Z,84.90
2019-05-23T14:22:45.538Z,85.30
2019-05-23T14:25:15.122Z,83.70
2019-05-23T14:27:53.531Z,81.80
2019-05-23T14:30:35.013Z,86.40
2019-05-23T14:33:06.422Z,83.10
2019-05-23T14:35:36.240Z,86.10
2019-05-23T14:38:07.569Z,83.30
2019-05-23T14:40:37.002Z,82.20
2019-05-23T14:43:17.656Z,82.10
2019-05-23T14:46:12.249Z,79.20
2019-05-23T14:49:09.801Z,83.00
2019-05-23T14:51:52.465Z,84.20
2019-05-23T14:54:40.776Z,81.40
2019-05-23T14:57:10.995Z,85.10
2019-05-23T14:59:40.457Z,79.00
2019-05-23T15:02:15.173Z,79.80
2019-05-23T15:04:44.685Z,85.60
2019-05-23T15:07:14.080Z,90.20
2019-05-23T15:09:43.673Z,89.50
2019-05-23T15:12:13.483Z,86.30
2019-05-23T15:14:42.870Z,87.00
2019-05-23T15:17:12.569Z,89.00
2019-05-23T15:19:45.156Z,88.80
2019-05-23T15:22:13.168Z,81.30
2019-05-23T15:24:42.685Z,88.20
2019-05-23T15:27:12.186Z,85.70
2019-05-23T15:29:41.634Z,83.40
2019-05-23T15:32:10.962Z,84.00
2019-05-23T15:34:40.325Z,83.50
2019-05-23T15:37:09.746Z,89.20
2019-05-23T15:39:38.977Z,90.90
2019-05-23T15:42:08.521Z,82.70
2019-05-23T15:44:37.867Z,84.90
2019-05-23T15:47:07.909Z,86.80
2019-05-23T15:49:39.393Z,87.40
2019-05-23T15:52:26.581Z,85.30
2019-05-23T15:55:18.087Z,91.80
2019-05-23T15:57:59.395Z,89.40
2019-05-23T16:00:44.060Z,89.60
2019-05-23T16:03:35.843Z,90.40
2019-05-23T16:06:07.884Z,90.30
2019-05-23T16:08:38.361Z,90.90
2019-05-23T16:11:07.685Z,87.80
2019-05-23T16:13:37.543Z,90.60
2019-05-23T16:16:06.949Z,90.20
2019-05-23T16:18:36.449Z,90.60
2019-05-23T16:21:06.352Z,89.90
2019-05-23T16:23:35.823Z,88.70
2019-05-23T16:26:05.286Z,89.00
2019-05-23T16:28:34.686Z,92.00
2019-05-23T16:31:04.117Z,89.20
2019-05-23T16:33:33.562Z,85.70
2019-05-23T16:36:03.102Z,82.50
2019-05-23T16:38:32.489Z,87.10
2019-05-23T16:41:01.742Z,87.40
2019-05-23T16:43:31.126Z,90.20
2019-05-23T16:46:00.429Z,86.90
2019-05-23T16:48:29.914Z,87.80
2019-05-23T16:50:59.337Z,84.10
2019-05-23T16:53:29.783Z,87.10
2019-05-23T16:56:05.452Z,85.20
2019-05-23T16:58:54.670Z,85.50
2019-05-23T17:01:56.949Z,80.20
2019-05-23T17:04:27.068Z,80.10
2019-05-23T17:07:13.164Z,81.60
2019-05-23T17:10:08.949Z,80.70
2019-05-23T17:12:48.321Z,79.00
2019-05-23T17:15:42.275Z,80.40
2019-05-23T17:18:24.253Z,89.20
2019-05-23T17:21:15.719Z,86.50
2019-05-23T17:23:51.004Z,88.60
2019-05-23T17:26:54.673Z,87.90
2019-05-23T17:29:32.723Z,89.80
2019-05-23T17:32:02.439Z,89.10
2019-05-23T17:34:31.950Z,89.30
2019-05-23T17:37:01.374Z,90.60
2019-05-23T17:39:31.335Z,91.20
2019-05-23T17:42:00.847Z,90.70
2019-05-23T17:44:30.296Z,91.30
2019-05-23T17:46:59.716Z,91.60
2019-05-23T17:49:29.048Z,89.90
2019-05-23T17:51:58.615Z,90.20
2019-05-23T17:54:28.313Z,91.00
2019-05-23T17:56:57.812Z,92.10
2019-05-23T17:59:27.250Z,91.80
2019-05-23T18:01:56.869Z,91.10
2019-05-23T18:04:26.353Z,93.40
2019-05-23T18:06:55.653Z,93.80
2019-05-23T18:09:25.061Z,92.50
2019-05-23T18:11:55.554Z,90.80
2019-05-23T18:14:25.929Z,91.30
2019-05-23T18:16:55.458Z,91.30
2019-05-23T18:19:25.612Z,92.30
2019-05-23T18:21:55.039Z,92.80
2019-05-23T18:24:24.582Z,93.80
2019-05-23T18:26:53.873Z,93.90
2019-05-23T18:29:23.259Z,94.80
2019-05-23T18:31:53.098Z,95.10
2019-05-23T18:34:23.500Z,96.20
2019-05-23T18:36:53.003Z,98.00
2019-05-23T18:39:22.846Z,97.50
2019-05-23T18:41:52.498Z,97.90
2019-05-23T18:44:21.883Z,98.90
2019-05-23T18:46:53.318Z,98.30
2019-05-23T18:49:23.589Z,99.40
2019-05-23T18:51:53.022Z,99.20
2019-05-23T18:54:22.499Z,99.90
2019-05-23T18:56:52.013Z,99.90
2019-05-23T18:59:21.660Z,99.90
2019-05-23T19:01:51.075Z,99.90
2019-05-23T19:04:20.608Z,99.90
2019-05-23T19:06:51.299Z,99.90
2019-05-23T19:09:22.326Z,99.90
2019-05-23T19:11:51.754Z,99.90
2019-05-23T19:14:21.410Z,99.90
2019-05-23T19:16:51.275Z,99.90
2019-05-23T19:19:21.188Z,99.90
2019-05-23T19:21:51.041Z,99.90
2019-05-23T19:24:20.839Z,99.90
2019-05-23T19:26:50.394Z,99.90
2019-05-23T19:29:20.525Z,99.90
2019-05-23T19:31:49.964Z,99.90
2019-05-23T19:34:19.484Z,99.90
2019-05-23T19:36:48.874Z,99.90
2019-05-23T19:39:18.262Z,99.90
2019-05-23T19:41:47.641Z,99.90
2019-05-23T19:44:17.191Z,99.90
2019-05-23T19:46:46.651Z,99.90
2019-05-23T19:49:16.095Z,99.90
2019-05-23T19:51:45.730Z,99.90
2019-05-23T19:54:15.453Z,99.90
2019-05-23T19:56:44.813Z,99.90
2019-05-23T19:59:14.200Z,99.90
2019-05-23T20:01:53.717Z,99.90
2019-05-23T20:04:28.541Z,99.90
2019-05-23T20:06:56.784Z,99.90
2019-05-23T20:09:27.926Z,99.90
2019-05-23T20:11:57.503Z,99.90
2019-05-23T20:14:26.841Z,99.90
2019-05-23T20:16:56.103Z,99.90
2019-05-23T20:19:25.535Z,99.90
2019-05-23T20:21:55.189Z,99.90
2019-05-23T20:24:24.520Z,99.90
2019-05-23T20:26:53.928Z,99.90
2019-05-23T20:29:23.375Z,99.90
2019-05-23T20:31:52.995Z,99.90
2019-05-23T20:34:22.624Z,99.90
2019-05-23T20:36:51.951Z,99.90
2019-05-23T20:39:22.678Z,99.90
2019-05-23T20:41:52.008Z,99.90
2019-05-23T20:44:21.379Z,99.90
2019-05-23T20:46:51.477Z,99.90
2019-05-23T20:49:20.801Z,99.90
2019-05-23T20:51:51.016Z,99.90
2019-05-23T20:54:20.441Z,99.90
2019-05-23T20:56:49.866Z,99.90
2019-05-23T20:59:19.380Z,99.90
2019-05-23T21:01:48.711Z,99.90
2019-05-23T21:04:18.103Z,99.90
2019-05-23T21:06:47.326Z,99.90
2019-05-23T21:09:16.654Z,99.90
2019-05-23T21:11:46.023Z,99.90
2019-05-23T21:14:16.387Z,99.90
2019-05-23T21:16:45.662Z,99.90
2019-05-23T21:19:15.014Z,99.90
2019-05-23T21:21:44.255Z,99.90
2019-05-23T21:24:13.729Z,99.90
2019-05-23T21:26:43.170Z,99.90
2019-05-23T21:29:12.577Z,99.90
2019-05-23T21:31:41.942Z,99.90
2019-05-23T21:34:11.315Z,99.90
2019-05-23T21:36:40.715Z,99.90
2019-05-23T21:39:11.796Z,99.90
2019-05-23T21:41:41.115Z,99.90
2019-05-23T21:44:10.385Z,99.90
2019-05-23T21:46:39.839Z,99.90
2019-05-23T21:49:09.158Z,99.90
2019-05-23T21:51:38.593Z,99.90
2019-05-23T21:54:07.953Z,99.90
2019-05-23T21:56:37.290Z,99.90
2019-05-23T21:59:06.554Z,99.90
2019-05-23T22:01:57.916Z,99.90
2019-05-23T22:04:37.571Z,99.90
2019-05-23T22:07:07.850Z,99.90
2019-05-23T22:09:37.950Z,99.90
2019-05-23T22:12:09.119Z,99.90
2019-05-23T22:14:39.875Z,99.90
2019-05-23T22:17:09.358Z,99.90
2019-05-23T22:19:38.801Z,99.90
2019-05-23T22:22:08.162Z,99.90
2019-05-23T22:24:37.927Z,99.90
2019-05-23T22:27:09.317Z,99.90
2019-05-23T22:29:38.675Z,99.90
2019-05-23T22:32:10.106Z,99.90
2019-05-23T22:34:56.952Z,99.90
2019-05-23T22:37:27.880Z,99.90
2019-05-23T22:39:57.136Z,99.90
2019-05-23T22:42:28.579Z,99.90
2019-05-23T22:44:57.796Z,99.90
2019-05-23T22:47:27.447Z,99.90
2019-05-23T22:49:56.792Z,99.90
2019-05-23T22:52:26.069Z,99.90
2019-05-23T22:54:55.305Z,99.90
2019-05-23T22:57:24.505Z,99.90
2019-05-23T22:59:55.842Z,99.90
2019-05-23T23:02:25.169Z,99.90
2019-05-23T23:04:54.469Z,99.90
2019-05-23T23:07:24.088Z,99.90
2019-05-23T23:09:53.770Z,99.90
2019-05-23T23:12:24.316Z,99.90
2019-05-23T23:14:53.612Z,99.90
2019-05-23T23:17:23.646Z,99.90
2019-05-23T23:19:53.023Z,99.90
2019-05-23T23:22:22.368Z,99.90
2019-05-23T23:24:51.606Z,99.90
2019-05-23T23:27:20.956Z,99.90
2019-05-23T23:29:50.278Z,99.90
2019-05-23T23:32:19.700Z,99.90
2019-05-23T23:34:49.015Z,99.90
2019-05-23T23:37:18.410Z,99.90
2019-05-23T23:39:47.860Z,99.90
2019-05-23T23:42:17.219Z,99.90
2019-05-23T23:44:45.664Z,99.90
2019-05-23T23:47:32.858Z,99.90
2019-05-23T23:50:19.987Z,99.90
2019-05-23T23:53:06.962Z,99.90
2019-05-23T23:55:54.081Z,99.90
2019-05-23T23:58:22.541Z,99.90
